Araxos, Greece

4:46 PM EEST on August 22, 2014 (GMT +0300)
Araxos Air Base | Change Station
CLOSE
Current Station
Airport
Location: Araxos,
Elevation: 49 ft
Nearby Weather Stations

Elev 49 ft 38.15 °N, 21.43 °E | Updated 26 minutes ago

Mostly Cloudy
Mostly Cloudy
84 °F
Feels Like 86 °F
N
9
Wind Variable Wind from WSW

Today
High -- | Low -- °F
--% Chance of Precip.
Yesterday
High -- | Low -- °F
Precip. -- in
6:55 AM 8:18 PM
Waning Crescent, 8% visible
Pressure 29.95 in
Visibility 6.2 miles
Clouds Mostly Cloudy 9000 ft
Heat Index 86 °F
Dew Point 64 °F
Humidity 51%
Rainfall 0.00 in
Snow Depth Not available.
UV 3 out of 12
Pollen Not available.
Air Quality Not available.
Flu Activity Not available.
METAR LGRX 221320Z 24008KT 9999 BKN090 29/18 Q1014 NOSIG

More Conditions Fewer Conditions

Pressure 29.95 in
Visibility 6.2 miles
Clouds Mostly Cloudy 9000 ft
Heat Index 86 °F
Dew Point 64 °F
Humidity 51%
Rainfall 0.00 in
Snow Depth Not available.
UV 3 out of 12
Pollen Not available.
Air Quality Not available.
Flu Activity Not available.
METAR LGRX 221320Z 24008KT 9999 BKN090 29/18 Q1014 NOSIG

More Conditions Fewer Conditions

10-Day Weather Forecast

Almanac

Astronomy

Aug. 22, 2014 Rise Set
Actual Time 6:55 AM EEST 8:18 PM EEST
Civil Twilight 6:27 AM EEST 8:46 PM EEST
Nautical Twilight 5:54 AM EEST 9:19 PM EEST
Astronomical Twilight 5:19 AM EEST 9:54 PM EEST
Moon 4:02 AM EEST 6:14 PM EEST
Length of Visible Light 14h 18m
Length of Day
13h 23m
Tomorrow will be 2m 15s shorter.
Waning Crescent, 8% of the Moon is Illuminated
Today
Waning Crescent
Aug 25
New
Sep 2
First Quarter
Sep 8
Full
Sep 15
Last Quarter

Yesterday's Extremes

Country Highs Country Lows

Community

WunderPhotos

Upload Photos

1,746,168 photos uploaded!

Nearby

Snow Depth

Not available.

Earthquake Activity

City Distance Mag. Time & Date
No recent earthquake activity has been reported nearby.
Minimum magnitude displayed is 2.5.

Coastal Water Temperatures

Place Temperature
No Stations Reporting

Nearby Weather Stations